Terminal Aerodrome Forecast
Issued by NWS

Home | Current Version | Previous Version | Text Only | Print | Product List | Glossary On
Versions: 1 2 3 4 5 6 7 8 9 10 11 12 13 14 15 16
836
FTUS46 KLOX 302340
TAFWJF
TAF
KWJF 302340Z 3100/3124 29032G40KT P6SM SKC
     FM310300 29028G35KT P6SM SKC
     FM310700 30020G28KT P6SM SKC
     FM311200 28014KT P6SM SKC
     FM312100 26009KT P6SM SKC=

USA.gov is the U.S. government's official web portal to all federal, state and local government web resources and services.